sensor_id;sensor_type;location;lat;lon;timestamp;pressure;altitude;pressure_sealevel;temperature;humidity
20019;BME280;10170;42.502;26.526;2023-01-26T00:01:19;100618.19;;;2.02;100.00
20019;BME280;10170;42.502;26.526;2023-01-26T00:03:46;100618.56;;;1.98;100.00
20019;BME280;10170;42.502;26.526;2023-01-26T00:06:15;100612.22;;;2.00;100.00
20019;BME280;10170;42.502;26.526;2023-01-26T00:08:44;100595.72;;;1.89;100.00
20019;BME280;10170;42.502;26.526;2023-01-26T00:11:13;100611.75;;;1.95;100.00
20019;BME280;10170;42.502;26.526;2023-01-26T00:13:40;100616.31;;;1.93;100.00
20019;BME280;10170;42.502;26.526;2023-01-26T00:16:09;100604.56;;;1.88;100.00
20019;BME280;10170;42.502;26.526;2023-01-26T00:18:37;100598.25;;;1.79;100.00
20019;BME280;10170;42.502;26.526;2023-01-26T00:21:06;100608.75;;;1.79;100.00
20019;BME280;10170;42.502;26.526;2023-01-26T00:23:34;100609.28;;;1.73;100.00
20019;BME280;10170;42.502;26.526;2023-01-26T00:26:01;100602.81;;;1.77;100.00
20019;BME280;10170;42.502;26.526;2023-01-26T00:28:28;100604.03;;;1.73;100.00
20019;BME280;10170;42.502;26.526;2023-01-26T00:31:15;100607.66;;;1.61;100.00
20019;BME280;10170;42.502;26.526;2023-01-26T00:33:42;100607.84;;;1.69;100.00
20019;BME280;10170;42.502;26.526;2023-01-26T00:36:09;100606.97;;;1.80;100.00
20019;BME280;10170;42.502;26.526;2023-01-26T00:38:37;100609.88;;;1.66;100.00
20019;BME280;10170;42.502;26.526;2023-01-26T00:41:03;100597.38;;;1.69;100.00
20019;BME280;10170;42.502;26.526;2023-01-26T00:43:30;100612.91;;;1.61;100.00
20019;BME280;10170;42.502;26.526;2023-01-26T00:45:57;100608.09;;;1.66;100.00
20019;BME280;10170;42.502;26.526;2023-01-26T00:48:24;100595.03;;;1.55;100.00
20019;BME280;10170;42.502;26.526;2023-01-26T00:50:51;100600.88;;;1.59;100.00
20019;BME280;10170;42.502;26.526;2023-01-26T00:53:18;100592.78;;;1.51;100.00
20019;BME280;10170;42.502;26.526;2023-01-26T00:55:45;100597.19;;;1.61;100.00
20019;BME280;10170;42.502;26.526;2023-01-26T00:58:12;100572.66;;;1.51;100.00
20019;BME280;10170;42.502;26.526;2023-01-26T01:00:39;100602.69;;;1.79;100.00
20019;BME280;10170;42.502;26.526;2023-01-26T01:03:06;100591.16;;;1.70;100.00
20019;BME280;10170;42.502;26.526;2023-01-26T01:05:33;100581.75;;;1.68;100.00
20019;BME280;10170;42.502;26.526;2023-01-26T01:08:00;100576.97;;;1.73;100.00
20019;BME280;10170;42.502;26.526;2023-01-26T01:10:27;100581.13;;;1.75;100.00
20019;BME280;10170;42.502;26.526;2023-01-26T01:12:55;100565.59;;;1.63;100.00
20019;BME280;10170;42.502;26.526;2023-01-26T01:15:23;100573.22;;;1.86;100.00
20019;BME280;10170;42.502;26.526;2023-01-26T01:17:50;100561.88;;;1.65;100.00
20019;BME280;10170;42.502;26.526;2023-01-26T01:20:17;100571.72;;;1.73;100.00
20019;BME280;10170;42.502;26.526;2023-01-26T01:22:44;100570.00;;;1.83;100.00
20019;BME280;10170;42.502;26.526;2023-01-26T01:25:11;100567.13;;;1.86;100.00
20019;BME280;10170;42.502;26.526;2023-01-26T01:27:37;100572.81;;;1.91;100.00
20019;BME280;10170;42.502;26.526;2023-01-26T01:30:05;100573.84;;;1.99;100.00
20019;BME280;10170;42.502;26.526;2023-01-26T01:32:34;100565.22;;;1.88;100.00
20019;BME280;10170;42.502;26.526;2023-01-26T01:35:01;100556.03;;;1.93;100.00
20019;BME280;10170;42.502;26.526;2023-01-26T01:37:29;100557.81;;;1.93;100.00
20019;BME280;10170;42.502;26.526;2023-01-26T01:39:56;100564.69;;;1.94;100.00
20019;BME280;10170;42.502;26.526;2023-01-26T01:42:23;100528.56;;;1.56;100.00
20019;BME280;10170;42.502;26.526;2023-01-26T01:47:56;100533.03;;;1.65;100.00
20019;BME280;10170;42.502;26.526;2023-01-26T01:50:25;100543.09;;;1.81;100.00
20019;BME280;10170;42.502;26.526;2023-01-26T01:52:53;100540.53;;;1.70;100.00
20019;BME280;10170;42.502;26.526;2023-01-26T01:55:21;100528.91;;;1.63;100.00
20019;BME280;10170;42.502;26.526;2023-01-26T01:57:55;100523.66;;;1.63;100.00
20019;BME280;10170;42.502;26.526;2023-01-26T02:00:25;100535.34;;;1.79;100.00
20019;BME280;10170;42.502;26.526;2023-01-26T02:02:58;100513.94;;;1.74;100.00
20019;BME280;10170;42.502;26.526;2023-01-26T02:06:00;100525.81;;;1.78;100.00
20019;BME280;10170;42.502;26.526;2023-01-26T02:11:06;100525.63;;;1.70;100.00
20019;BME280;10170;42.502;26.526;2023-01-26T02:13:35;100520.34;;;1.61;100.00
20019;BME280;10170;42.502;26.526;2023-01-26T02:16:03;100524.47;;;1.63;100.00
20019;BME280;10170;42.502;26.526;2023-01-26T02:18:29;100508.25;;;1.69;100.00
20019;BME280;10170;42.502;26.526;2023-01-26T02:21:02;100509.31;;;1.67;100.00
20019;BME280;10170;42.502;26.526;2023-01-26T02:26:35;100506.13;;;1.63;100.00
20019;BME280;10170;42.502;26.526;2023-01-26T02:29:05;100512.00;;;1.76;100.00
20019;BME280;10170;42.502;26.526;2023-01-26T02:31:33;100507.22;;;1.81;100.00
20019;BME280;10170;42.502;26.526;2023-01-26T02:34:00;100503.56;;;1.73;100.00
20019;BME280;10170;42.502;26.526;2023-01-26T02:36:29;100486.31;;;1.70;100.00
20019;BME280;10170;42.502;26.526;2023-01-26T02:39:22;100509.97;;;1.80;100.00
20019;BME280;10170;42.502;26.526;2023-01-26T02:41:53;100509.03;;;1.81;100.00
20019;BME280;10170;42.502;26.526;2023-01-26T02:44:39;100509.66;;;1.73;100.00
20019;BME280;10170;42.502;26.526;2023-01-26T02:47:12;100502.50;;;1.75;100.00
20019;BME280;10170;42.502;26.526;2023-01-26T02:49:39;100505.84;;;1.77;100.00
20019;BME280;10170;42.502;26.526;2023-01-26T02:52:13;100499.22;;;1.83;100.00
20019;BME280;10170;42.502;26.526;2023-01-26T02:54:40;100497.69;;;1.80;100.00
20019;BME280;10170;42.502;26.526;2023-01-26T02:57:26;100496.59;;;1.83;100.00
20019;BME280;10170;42.502;26.526;2023-01-26T02:59:53;100489.53;;;1.74;100.00
20019;BME280;10170;42.502;26.526;2023-01-26T03:02:20;100475.03;;;1.79;100.00
20019;BME280;10170;42.502;26.526;2023-01-26T03:04:47;100488.50;;;1.86;100.00
20019;BME280;10170;42.502;26.526;2023-01-26T03:07:14;100485.66;;;1.98;100.00
20019;BME280;10170;42.502;26.526;2023-01-26T03:09:41;100491.63;;;2.10;100.00
20019;BME280;10170;42.502;26.526;2023-01-26T03:12:08;100490.13;;;2.07;100.00
20019;BME280;10170;42.502;26.526;2023-01-26T03:14:34;100481.41;;;2.07;100.00
20019;BME280;10170;42.502;26.526;2023-01-26T03:17:01;100490.13;;;2.17;100.00
20019;BME280;10170;42.502;26.526;2023-01-26T03:19:28;100491.97;;;2.26;100.00
20019;BME280;10170;42.502;26.526;2023-01-26T03:22:13;100484.78;;;2.19;100.00
20019;BME280;10170;42.502;26.526;2023-01-26T03:24:58;100487.50;;;2.17;100.00
20019;BME280;10170;42.502;26.526;2023-01-26T03:27:45;100483.50;;;2.13;100.00
20019;BME280;10170;42.502;26.526;2023-01-26T03:30:15;100491.59;;;2.00;100.00
20019;BME280;10170;42.502;26.526;2023-01-26T03:32:42;100477.78;;;1.98;100.00
20019;BME280;10170;42.502;26.526;2023-01-26T03:35:09;100476.94;;;1.98;100.00
20019;BME280;10170;42.502;26.526;2023-01-26T03:37:43;100472.75;;;1.86;100.00
20019;BME280;10170;42.502;26.526;2023-01-26T03:40:11;100473.41;;;1.78;100.00
20019;BME280;10170;42.502;26.526;2023-01-26T03:42:56;100458.88;;;1.95;100.00
20019;BME280;10170;42.502;26.526;2023-01-26T03:45:42;100452.16;;;1.81;100.00
20019;BME280;10170;42.502;26.526;2023-01-26T03:48:27;100448.81;;;1.70;100.00
20019;BME280;10170;42.502;26.526;2023-01-26T03:51:13;100448.84;;;1.79;100.00
20019;BME280;10170;42.502;26.526;2023-01-26T03:53:58;100444.84;;;1.85;100.00
20019;BME280;10170;42.502;26.526;2023-01-26T03:56:43;100432.88;;;1.82;100.00
20019;BME280;10170;42.502;26.526;2023-01-26T03:59:10;100434.50;;;1.83;100.00
20019;BME280;10170;42.502;26.526;2023-01-26T04:01:45;100436.78;;;1.97;100.00
20019;BME280;10170;42.502;26.526;2023-01-26T04:04:31;100439.97;;;2.01;100.00
20019;BME280;10170;42.502;26.526;2023-01-26T04:07:17;100434.28;;;1.96;100.00
20019;BME280;10170;42.502;26.526;2023-01-26T04:10:02;100438.09;;;2.12;100.00
20019;BME280;10170;42.502;26.526;2023-01-26T04:12:29;100419.13;;;1.99;100.00
20019;BME280;10170;42.502;26.526;2023-01-26T04:14:55;100425.50;;;2.06;100.00
20019;BME280;10170;42.502;26.526;2023-01-26T04:17:41;100434.63;;;2.12;100.00
20019;BME280;10170;42.502;26.526;2023-01-26T04:20:26;100429.78;;;2.07;100.00
20019;BME280;10170;42.502;26.526;2023-01-26T04:23:19;100421.38;;;2.04;100.00
20019;BME280;10170;42.502;26.526;2023-01-26T04:25:47;100418.41;;;1.97;100.00
20019;BME280;10170;42.502;26.526;2023-01-26T04:28:14;100420.38;;;2.05;100.00
20019;BME280;10170;42.502;26.526;2023-01-26T04:30:41;100419.81;;;2.01;100.00
20019;BME280;10170;42.502;26.526;2023-01-26T04:33:08;100418.97;;;2.01;100.00
20019;BME280;10170;42.502;26.526;2023-01-26T04:35:34;100430.03;;;2.04;100.00
20019;BME280;10170;42.502;26.526;2023-01-26T04:38:01;100427.47;;;2.14;100.00
20019;BME280;10170;42.502;26.526;2023-01-26T04:40:27;100426.63;;;2.13;100.00
20019;BME280;10170;42.502;26.526;2023-01-26T04:42:54;100421.84;;;2.19;100.00
20019;BME280;10170;42.502;26.526;2023-01-26T04:45:21;100422.22;;;2.14;100.00
20019;BME280;10170;42.502;26.526;2023-01-26T04:47:47;100423.47;;;2.20;100.00
20019;BME280;10170;42.502;26.526;2023-01-26T04:50:16;100420.03;;;2.19;100.00
20019;BME280;10170;42.502;26.526;2023-01-26T04:52:42;100414.06;;;2.17;100.00
20019;BME280;10170;42.502;26.526;2023-01-26T04:55:09;100381.47;;;2.10;100.00
20019;BME280;10170;42.502;26.526;2023-01-26T04:57:36;100409.41;;;2.30;100.00
20019;BME280;10170;42.502;26.526;2023-01-26T05:00:03;100397.81;;;2.23;100.00
20019;BME280;10170;42.502;26.526;2023-01-26T05:02:31;100411.59;;;2.15;100.00
20019;BME280;10170;42.502;26.526;2023-01-26T05:04:59;100399.78;;;2.40;100.00
20019;BME280;10170;42.502;26.526;2023-01-26T05:07:26;100395.81;;;2.65;100.00
20019;BME280;10170;42.502;26.526;2023-01-26T05:09:53;100408.06;;;2.55;100.00
20019;BME280;10170;42.502;26.526;2023-01-26T05:12:21;100410.16;;;2.42;100.00
20019;BME280;10170;42.502;26.526;2023-01-26T05:15:00;100403.50;;;2.38;100.00
20019;BME280;10170;42.502;26.526;2023-01-26T05:17:26;100412.00;;;2.21;100.00
20019;BME280;10170;42.502;26.526;2023-01-26T05:19:53;100404.69;;;2.24;100.00
20019;BME280;10170;42.502;26.526;2023-01-26T05:22:20;100397.94;;;2.22;100.00
20019;BME280;10170;42.502;26.526;2023-01-26T05:24:46;100394.75;;;2.18;100.00
20019;BME280;10170;42.502;26.526;2023-01-26T05:27:13;100386.06;;;2.17;100.00
20019;BME280;10170;42.502;26.526;2023-01-26T05:29:49;100381.50;;;2.20;100.00
20019;BME280;10170;42.502;26.526;2023-01-26T05:32:17;100378.59;;;2.13;100.00
20019;BME280;10170;42.502;26.526;2023-01-26T05:34:44;100374.16;;;2.13;100.00
20019;BME280;10170;42.502;26.526;2023-01-26T05:37:11;100374.16;;;2.13;100.00
20019;BME280;10170;42.502;26.526;2023-01-26T05:39:40;100362.84;;;2.03;100.00
20019;BME280;10170;42.502;26.526;2023-01-26T05:42:07;100356.50;;;2.15;100.00
20019;BME280;10170;42.502;26.526;2023-01-26T05:44:33;100363.69;;;2.13;100.00
20019;BME280;10170;42.502;26.526;2023-01-26T05:47:00;100345.31;;;2.04;100.00
20019;BME280;10170;42.502;26.526;2023-01-26T05:49:27;100357.47;;;2.14;100.00
20019;BME280;10170;42.502;26.526;2023-01-26T05:51:53;100344.38;;;2.14;100.00
20019;BME280;10170;42.502;26.526;2023-01-26T05:54:20;100362.84;;;2.03;100.00
20019;BME280;10170;42.502;26.526;2023-01-26T05:56:47;100361.19;;;2.02;100.00
20019;BME280;10170;42.502;26.526;2023-01-26T05:59:14;100368.91;;;2.04;100.00
20019;BME280;10170;42.502;26.526;2023-01-26T06:01:41;100373.75;;;2.08;100.00
20019;BME280;10170;42.502;26.526;2023-01-26T06:04:07;100366.56;;;2.10;100.00
20019;BME280;10170;42.502;26.526;2023-01-26T06:06:34;100361.47;;;2.09;100.00
20019;BME280;10170;42.502;26.526;2023-01-26T06:09:01;100355.13;;;2.11;100.00
20019;BME280;10170;42.502;26.526;2023-01-26T06:11:28;100351.25;;;2.06;100.00
20019;BME280;10170;42.502;26.526;2023-01-26T06:13:56;100341.19;;;2.21;100.00
20019;BME280;10170;42.502;26.526;2023-01-26T06:16:23;100343.69;;;2.22;100.00
20019;BME280;10170;42.502;26.526;2023-01-26T06:18:50;100337.75;;;2.20;100.00
20019;BME280;10170;42.502;26.526;2023-01-26T06:21:16;100341.34;;;2.29;100.00
20019;BME280;10170;42.502;26.526;2023-01-26T06:23:43;100343.00;;;2.39;100.00
20019;BME280;10170;42.502;26.526;2023-01-26T06:26:10;100340.00;;;2.44;100.00
20019;BME280;10170;42.502;26.526;2023-01-26T06:28:36;100340.41;;;2.39;100.00
20019;BME280;10170;42.502;26.526;2023-01-26T06:31:05;100336.25;;;2.27;100.00
20019;BME280;10170;42.502;26.526;2023-01-26T06:33:34;100337.91;;;2.19;100.00
20019;BME280;10170;42.502;26.526;2023-01-26T06:36:07;100335.69;;;2.24;100.00
20019;BME280;10170;42.502;26.526;2023-01-26T06:38:35;100348.13;;;2.31;100.00
20019;BME280;10170;42.502;26.526;2023-01-26T06:41:04;100346.19;;;2.43;100.00
20019;BME280;10170;42.502;26.526;2023-01-26T06:43:32;100329.88;;;2.30;100.00
20019;BME280;10170;42.502;26.526;2023-01-26T06:46:00;100338.16;;;2.25;100.00
20019;BME280;10170;42.502;26.526;2023-01-26T06:48:31;100330.97;;;2.37;100.00
20019;BME280;10170;42.502;26.526;2023-01-26T06:53:56;100332.38;;;2.22;100.00
20019;BME280;10170;42.502;26.526;2023-01-26T06:56:23;100339.94;;;2.25;100.00
20019;BME280;10170;42.502;26.526;2023-01-26T06:58:50;100342.03;;;2.11;100.00
20019;BME280;10170;42.502;26.526;2023-01-26T07:01:20;100337.09;;;2.28;100.00
20019;BME280;10170;42.502;26.526;2023-01-26T07:03:53;100339.00;;;2.35;100.00
20019;BME280;10170;42.502;26.526;2023-01-26T07:06:20;100349.09;;;2.59;100.00
20019;BME280;10170;42.502;26.526;2023-01-26T07:08:47;100334.59;;;2.74;100.00
20019;BME280;10170;42.502;26.526;2023-01-26T07:11:14;100338.19;;;2.54;100.00
20019;BME280;10170;42.502;26.526;2023-01-26T07:13:42;100334.31;;;2.48;100.00
20019;BME280;10170;42.502;26.526;2023-01-26T07:16:11;100331.72;;;2.58;100.00
20019;BME280;10170;42.502;26.526;2023-01-26T07:18:38;100333.47;;;2.48;100.00
20019;BME280;10170;42.502;26.526;2023-01-26T07:21:12;100323.69;;;2.50;100.00
20019;BME280;10170;42.502;26.526;2023-01-26T07:23:39;100330.59;;;2.51;100.00
20019;BME280;10170;42.502;26.526;2023-01-26T07:26:34;100324.94;;;2.55;100.00
20019;BME280;10170;42.502;26.526;2023-01-26T07:29:00;100331.56;;;2.59;100.00
20019;BME280;10170;42.502;26.526;2023-01-26T07:31:27;100331.56;;;2.50;100.00
20019;BME280;10170;42.502;26.526;2023-01-26T07:33:54;100315.66;;;2.51;100.00
20019;BME280;10170;42.502;26.526;2023-01-26T07:36:20;100335.44;;;2.65;100.00
20019;BME280;10170;42.502;26.526;2023-01-26T07:38:47;100337.09;;;2.66;100.00
20019;BME280;10170;42.502;26.526;2023-01-26T07:41:14;100328.25;;;2.67;100.00
20019;BME280;10170;42.502;26.526;2023-01-26T07:43:40;100334.06;;;2.70;100.00
20019;BME280;10170;42.502;26.526;2023-01-26T07:46:08;100338.19;;;2.82;100.00
20019;BME280;10170;42.502;26.526;2023-01-26T07:48:38;100333.44;;;3.05;100.00
20019;BME280;10170;42.502;26.526;2023-01-26T07:51:06;100327.81;;;2.90;100.00
20019;BME280;10170;42.502;26.526;2023-01-26T07:53:34;100323.22;;;3.02;100.00
20019;BME280;10170;42.502;26.526;2023-01-26T07:56:13;100310.78;;;3.04;100.00
20019;BME280;10170;42.502;26.526;2023-01-26T07:58:40;100314.94;;;3.06;100.00
20019;BME280;10170;42.502;26.526;2023-01-26T08:01:14;100317.81;;;3.13;100.00
20019;BME280;10170;42.502;26.526;2023-01-26T08:03:41;100323.47;;;3.18;100.00
20019;BME280;10170;42.502;26.526;2023-01-26T08:06:08;100306.38;;;3.04;100.00
20019;BME280;10170;42.502;26.526;2023-01-26T08:08:39;100306.63;;;3.01;100.00
20019;BME280;10170;42.502;26.526;2023-01-26T08:11:07;100291.06;;;2.90;100.00
20019;BME280;10170;42.502;26.526;2023-01-26T08:13:34;100305.53;;;3.04;100.00
20019;BME280;10170;42.502;26.526;2023-01-26T08:16:06;100301.22;;;3.03;100.00
20019;BME280;10170;42.502;26.526;2023-01-26T08:18:42;100288.09;;;3.03;100.00
20019;BME280;10170;42.502;26.526;2023-01-26T08:21:11;100272.06;;;3.06;100.00
20019;BME280;10170;42.502;26.526;2023-01-26T08:23:38;100268.47;;;3.07;100.00
20019;BME280;10170;42.502;26.526;2023-01-26T08:26:07;100257.94;;;3.16;100.00
20019;BME280;10170;42.502;26.526;2023-01-26T08:28:35;100255.16;;;3.18;100.00
20019;BME280;10170;42.502;26.526;2023-01-26T08:31:03;100253.91;;;3.22;100.00
20019;BME280;10170;42.502;26.526;2023-01-26T08:33:32;100241.00;;;3.29;100.00
20019;BME280;10170;42.502;26.526;2023-01-26T08:36:05;100243.47;;;3.40;100.00
20019;BME280;10170;42.502;26.526;2023-01-26T08:38:33;100229.91;;;3.44;100.00
20019;BME280;10170;42.502;26.526;2023-01-26T08:41:00;100234.34;;;3.61;100.00
20019;BME280;10170;42.502;26.526;2023-01-26T08:43:28;100231.94;;;3.68;100.00
20019;BME280;10170;42.502;26.526;2023-01-26T08:45:54;100238.56;;;3.72;100.00
20019;BME280;10170;42.502;26.526;2023-01-26T08:48:22;100225.22;;;4.00;100.00
20019;BME280;10170;42.502;26.526;2023-01-26T08:50:53;100234.75;;;3.84;100.00
20019;BME280;10170;42.502;26.526;2023-01-26T08:53:20;100243.53;;;3.75;100.00
20019;BME280;10170;42.502;26.526;2023-01-26T08:55:46;100234.03;;;3.91;100.00
20019;BME280;10170;42.502;26.526;2023-01-26T08:58:13;100248.53;;;3.95;100.00
20019;BME280;10170;42.502;26.526;2023-01-26T09:00:40;100258.75;;;3.98;100.00
20019;BME280;10170;42.502;26.526;2023-01-26T09:03:07;100268.59;;;3.96;100.00
20019;BME280;10170;42.502;26.526;2023-01-26T09:05:35;100192.31;;;3.79;100.00
20019;BME280;10170;42.502;26.526;2023-01-26T09:08:03;100243.75;;;4.26;100.00
20019;BME280;10170;42.502;26.526;2023-01-26T09:10:33;100242.69;;;4.37;100.00
20019;BME280;10170;42.502;26.526;2023-01-26T09:13:00;100244.09;;;4.31;100.00
20019;BME280;10170;42.502;26.526;2023-01-26T09:15:27;100242.22;;;4.41;100.00
20019;BME280;10170;42.502;26.526;2023-01-26T09:17:54;100247.03;;;4.46;100.00
20019;BME280;10170;42.502;26.526;2023-01-26T09:20:21;100226.94;;;4.45;100.00
20019;BME280;10170;42.502;26.526;2023-01-26T09:22:48;100249.66;;;4.46;100.00
20019;BME280;10170;42.502;26.526;2023-01-26T09:25:14;100242.38;;;4.40;100.00
20019;BME280;10170;42.502;26.526;2023-01-26T09:27:41;100242.97;;;4.51;100.00
20019;BME280;10170;42.502;26.526;2023-01-26T09:30:09;100239.50;;;4.51;100.00
20019;BME280;10170;42.502;26.526;2023-01-26T09:32:36;100230.16;;;4.56;100.00
20019;BME280;10170;42.502;26.526;2023-01-26T09:35:03;100228.06;;;4.60;100.00
20019;BME280;10170;42.502;26.526;2023-01-26T09:37:30;100219.72;;;4.64;100.00
20019;BME280;10170;42.502;26.526;2023-01-26T09:39:57;100218.91;;;4.72;100.00
20019;BME280;10170;42.502;26.526;2023-01-26T09:42:56;100215.59;;;4.70;100.00
20019;BME280;10170;42.502;26.526;2023-01-26T09:45:29;100217.59;;;4.68;100.00
20019;BME280;10170;42.502;26.526;2023-01-26T09:48:20;100205.75;;;4.72;100.00
20019;BME280;10170;42.502;26.526;2023-01-26T09:50:56;100194.81;;;4.59;100.00
20019;BME280;10170;42.502;26.526;2023-01-26T09:55:54;100177.81;;;4.53;100.00
20019;BME280;10170;42.502;26.526;2023-01-26T09:58:32;100182.28;;;4.61;100.00
20019;BME280;10170;42.502;26.526;2023-01-26T10:01:02;100179.38;;;4.64;100.00
20019;BME280;10170;42.502;26.526;2023-01-26T10:03:43;100173.31;;;4.46;100.00
20019;BME280;10170;42.502;26.526;2023-01-26T10:06:29;100159.00;;;4.48;100.00
20019;BME280;10170;42.502;26.526;2023-01-26T10:09:01;100168.00;;;4.63;100.00
20019;BME280;10170;42.502;26.526;2023-01-26T10:11:46;100164.09;;;4.67;100.00
20019;BME280;10170;42.502;26.526;2023-01-26T10:15:02;100145.38;;;4.78;100.00
20019;BME280;10170;42.502;26.526;2023-01-26T10:17:18;100144.88;;;4.75;100.00
20019;BME280;10170;42.502;26.526;2023-01-26T10:19:51;100140.41;;;4.75;100.00
20019;BME280;10170;42.502;26.526;2023-01-26T10:24:56;100128.47;;;4.89;100.00
20019;BME280;10170;42.502;26.526;2023-01-26T10:27:22;100114.59;;;4.79;100.00
20019;BME280;10170;42.502;26.526;2023-01-26T10:29:49;100107.34;;;4.81;100.00
20019;BME280;10170;42.502;26.526;2023-01-26T10:32:17;100103.25;;;4.78;100.00
20019;BME280;10170;42.502;26.526;2023-01-26T10:34:48;100061.03;;;4.62;100.00
20019;BME280;10170;42.502;26.526;2023-01-26T10:37:19;100071.13;;;4.75;100.00
20019;BME280;10170;42.502;26.526;2023-01-26T10:42:28;100049.09;;;4.84;100.00
20019;BME280;10170;42.502;26.526;2023-01-26T10:44:57;100043.50;;;4.87;100.00
20019;BME280;10170;42.502;26.526;2023-01-26T10:47:25;100041.19;;;4.84;100.00
20019;BME280;10170;42.502;26.526;2023-01-26T10:50:14;100037.75;;;4.91;100.00
20019;BME280;10170;42.502;26.526;2023-01-26T10:53:01;100034.81;;;4.94;100.00
20019;BME280;10170;42.502;26.526;2023-01-26T10:55:30;100030.50;;;4.93;100.00
20019;BME280;10170;42.502;26.526;2023-01-26T10:57:58;100018.50;;;4.99;100.00
20019;BME280;10170;42.502;26.526;2023-01-26T11:00:31;100006.13;;;4.91;100.00
20019;BME280;10170;42.502;26.526;2023-01-26T11:03:28;100003.03;;;4.96;100.00
20019;BME280;10170;42.502;26.526;2023-01-26T11:06:13;99989.03;;;4.95;100.00
20019;BME280;10170;42.502;26.526;2023-01-26T11:08:41;99966.44;;;4.85;100.00
20019;BME280;10170;42.502;26.526;2023-01-26T11:11:28;99954.59;;;4.97;100.00
20019;BME280;10170;42.502;26.526;2023-01-26T11:14:09;99933.22;;;5.00;100.00
20019;BME280;10170;42.502;26.526;2023-01-26T11:16:38;99910.50;;;5.07;100.00
20019;BME280;10170;42.502;26.526;2023-01-26T11:19:12;99886.78;;;5.07;100.00
20019;BME280;10170;42.502;26.526;2023-01-26T11:21:52;99899.94;;;5.15;100.00
20019;BME280;10170;42.502;26.526;2023-01-26T11:24:45;99876.41;;;5.21;100.00
20019;BME280;10170;42.502;26.526;2023-01-26T11:33:41;99876.53;;;5.44;100.00
20019;BME280;10170;42.502;26.526;2023-01-26T11:41:26;99878.59;;;5.81;100.00
20019;BME280;10170;42.502;26.526;2023-01-26T11:47:25;99881.28;;;6.19;100.00
20019;BME280;10170;42.502;26.526;2023-01-26T11:50:24;99894.66;;;6.10;100.00
20019;BME280;10170;42.502;26.526;2023-01-26T11:53:01;99886.94;;;6.08;100.00
20019;BME280;10170;42.502;26.526;2023-01-26T12:00:58;99883.50;;;6.00;100.00
20019;BME280;10170;42.502;26.526;2023-01-26T12:03:45;99880.38;;;5.96;100.00
20019;BME280;10170;42.502;26.526;2023-01-26T12:06:17;99846.13;;;5.72;100.00
20019;BME280;10170;42.502;26.526;2023-01-26T12:11:41;99857.13;;;5.92;100.00
20019;BME280;10170;42.502;26.526;2023-01-26T12:19:53;99845.22;;;6.04;100.00
20019;BME280;10170;42.502;26.526;2023-01-26T12:22:28;99844.13;;;5.90;100.00
20019;BME280;10170;42.502;26.526;2023-01-26T12:25:31;99848.91;;;5.95;100.00
20019;BME280;10170;42.502;26.526;2023-01-26T12:28:21;99840.09;;;6.02;100.00
20019;BME280;10170;42.502;26.526;2023-01-26T12:31:17;99838.28;;;6.11;100.00
20019;BME280;10170;42.502;26.526;2023-01-26T12:33:50;99816.41;;;5.94;100.00
20019;BME280;10170;42.502;26.526;2023-01-26T12:36:32;99821.25;;;6.13;100.00
20019;BME280;10170;42.502;26.526;2023-01-26T12:39:34;99826.22;;;6.08;100.00
20019;BME280;10170;42.502;26.526;2023-01-26T12:42:59;99814.53;;;6.03;100.00
20019;BME280;10170;42.502;26.526;2023-01-26T12:45:19;99808.44;;;6.02;100.00
20019;BME280;10170;42.502;26.526;2023-01-26T12:47:50;99802.53;;;6.00;100.00
20019;BME280;10170;42.502;26.526;2023-01-26T12:50:37;99817.28;;;6.17;100.00
20019;BME280;10170;42.502;26.526;2023-01-26T12:53:24;99812.03;;;6.09;100.00
20019;BME280;10170;42.502;26.526;2023-01-26T12:58:41;99806.78;;;6.01;100.00
20019;BME280;10170;42.502;26.526;2023-01-26T13:01:13;99815.53;;;6.02;100.00
20019;BME280;10170;42.502;26.526;2023-01-26T13:03:54;99809.69;;;6.14;100.00
20019;BME280;10170;42.502;26.526;2023-01-26T13:06:26;99804.34;;;6.00;100.00
20019;BME280;10170;42.502;26.526;2023-01-26T13:17:47;99793.94;;;6.29;100.00
20019;BME280;10170;42.502;26.526;2023-01-26T13:20:23;99798.97;;;6.38;100.00
20019;BME280;10170;42.502;26.526;2023-01-26T13:22:51;99792.34;;;6.43;100.00
20019;BME280;10170;42.502;26.526;2023-01-26T13:25:27;99791.13;;;6.53;100.00
20019;BME280;10170;42.502;26.526;2023-01-26T13:28:01;99801.94;;;6.66;100.00
20019;BME280;10170;42.502;26.526;2023-01-26T13:30:42;99798.94;;;6.69;100.00
20019;BME280;10170;42.502;26.526;2023-01-26T13:33:10;99792.66;;;6.70;100.00
20019;BME280;10170;42.502;26.526;2023-01-26T13:35:39;99785.34;;;6.72;100.00
20019;BME280;10170;42.502;26.526;2023-01-26T13:40:47;99790.81;;;6.71;100.00
20019;BME280;10170;42.502;26.526;2023-01-26T13:46:16;99791.38;;;6.66;100.00
20019;BME280;10170;42.502;26.526;2023-01-26T13:48:49;99811.84;;;6.64;100.00
20019;BME280;10170;42.502;26.526;2023-01-26T13:51:23;99806.19;;;6.67;100.00
20019;BME280;10170;42.502;26.526;2023-01-26T13:54:04;99781.25;;;6.70;100.00
20019;BME280;10170;42.502;26.526;2023-01-26T13:59:08;99805.03;;;6.70;100.00
20019;BME280;10170;42.502;26.526;2023-01-26T14:01:53;99790.03;;;6.70;100.00
20019;BME280;10170;42.502;26.526;2023-01-26T14:04:23;99800.13;;;6.67;100.00
20019;BME280;10170;42.502;26.526;2023-01-26T14:07:06;99798.88;;;6.55;100.00
20019;BME280;10170;42.502;26.526;2023-01-26T14:09:47;99787.03;;;6.51;100.00
20019;BME280;10170;42.502;26.526;2023-01-26T14:12:27;99775.81;;;6.49;100.00
20019;BME280;10170;42.502;26.526;2023-01-26T14:15:04;99760.38;;;6.37;100.00